Time;durP1;ratioP1;P1;durP2;ratioP2;P2;SDS_P1;SDS_P2;PMS_P1;PMS_P2;Temp;Humidity;BMP_temperature;BMP_pressure;BME280_temperature;BME280_humidity;BME280_pressure;Samples;Min_cycle;Max_cycle;Signal;HPM_P1;HPM_P2
2022/10/20 00:00:27;;;;;;;18.73;8.10;;;19.60;60.60;;;;;;6085987;29;20032;-77
2022/10/20 00:03:29;;;;;;;23.48;6.75;;;19.70;60.60;;;;;;6106232;29;20036;-76
2022/10/20 00:06:31;;;;;;;17.35;5.80;;;19.70;60.50;;;;;;6099049;29;20071;-77
2022/10/20 00:09:32;;;;;;;11.48;4.93;;;19.70;60.40;;;;;;6094855;29;20055;-77
2022/10/20 00:12:33;;;;;;;16.33;4.70;;;19.70;60.40;;;;;;6101105;29;20059;-77
2022/10/20 00:15:34;;;;;;;12.13;4.28;;;19.70;60.40;;;;;;6103047;29;20418;-77
2022/10/20 00:18:35;;;;;;;14.50;4.18;;;19.70;60.40;;;;;;6086179;29;20139;-77
2022/10/20 00:21:37;;;;;;;22.20;4.60;;;19.70;60.50;;;;;;6102862;29;20425;-78
2022/10/20 00:24:37;;;;;;;11.82;4.72;;;19.70;60.30;;;;;;6100118;29;20044;-77
2022/10/20 00:27:38;;;;;;;11.55;5.20;;;19.70;60.30;;;;;;6118039;29;20048;-78
2022/10/20 00:30:40;;;;;;;16.88;4.78;;;19.60;60.30;;;;;;6102131;29;20078;-77
2022/10/20 00:33:41;;;;;;;14.30;4.38;;;19.60;60.50;;;;;;6100733;29;20115;-77
2022/10/20 00:36:42;;;;;;;13.43;5.00;;;19.50;60.60;;;;;;6103622;29;20028;-77
2022/10/20 00:39:42;;;;;;;12.32;4.00;;;19.50;60.70;;;;;;6101803;29;20063;-77
2022/10/20 00:42:45;;;;;;;24.60;4.30;;;19.50;60.80;;;;;;6084725;29;20047;-76
2022/10/20 00:45:53;;;;;;;7.85;3.22;;;19.50;60.80;;;;;;6096139;29;20032;-78
2022/10/20 00:48:59;;;;;;;13.95;3.25;;;19.50;61.00;;;;;;6094917;29;20039;-77
2022/10/20 00:52:00;;;;;;;15.52;4.25;;;19.40;60.90;;;;;;6092336;29;20103;-77
2022/10/20 00:55:01;;;;;;;11.63;3.78;;;19.40;61.00;;;;;;6092993;29;20044;-77
2022/10/20 00:58:03;;;;;;;29.52;4.35;;;19.40;61.10;;;;;;6097586;29;20059;-77
2022/10/20 01:01:04;;;;;;;12.77;3.95;;;19.40;61.10;;;;;;6097896;29;20466;-77
2022/10/20 01:04:05;;;;;;;10.15;3.85;;;19.50;61.10;;;;;;6100547;29;20040;-78
2022/10/20 01:07:06;;;;;;;8.80;3.65;;;19.50;61.10;;;;;;6098429;29;20052;-77
2022/10/20 01:10:07;;;;;;;6.55;3.50;;;19.50;61.10;;;;;;6095221;29;20048;-77
2022/10/20 01:13:18;;;;;;;9.52;3.58;;;19.50;61.10;;;;;;6096180;29;20484;-77
2022/10/20 01:16:37;;;;;;;12.73;3.83;;;19.50;61.20;;;;;;6098418;29;20036;-77
2022/10/20 01:20:07;;;;;;;13.02;3.50;;;19.50;61.10;;;;;;6088267;29;20051;-77
2022/10/20 01:23:29;;;;;;;13.63;4.13;;;19.50;61.20;;;;;;6092813;29;20040;-77
2022/10/20 01:27:11;;;;;;;13.88;3.40;;;19.50;61.10;;;;;;6097478;29;20063;-77
2022/10/20 01:30:20;;;;;;;16.17;3.55;;;19.50;61.20;;;;;;6087536;29;20084;-77
2022/10/20 01:33:26;;;;;;;8.13;3.72;;;19.40;61.10;;;;;;6088846;29;20119;-77
2022/10/20 01:36:32;;;;;;;6.40;3.00;;;19.40;61.40;;;;;;6097816;29;20068;-77
2022/10/20 01:40:11;;;;;;;6.55;3.15;;;19.30;61.50;;;;;;6098069;29;20068;-77
2022/10/20 01:43:17;;;;;;;11.80;3.47;;;19.30;61.90;;;;;;6083885;29;20025;-78
2022/10/20 01:46:21;;;;;;;13.48;3.20;;;19.30;61.70;;;;;;6077351;29;20036;-78
2022/10/20 01:49:23;;;;;;;14.52;3.25;;;19.30;61.90;;;;;;6082798;29;20044;-78
2022/10/20 01:52:27;;;;;;;19.55;3.53;;;19.20;61.90;;;;;;6076194;29;20044;-79
2022/10/20 01:55:29;;;;;;;11.75;3.65;;;19.20;62.10;;;;;;6092819;29;20068;-76
2022/10/20 01:59:07;;;;;;;13.65;3.75;;;19.10;62.30;;;;;;6092021;29;20033;-77
2022/10/20 02:02:19;;;;;;;9.57;3.53;;;19.10;62.50;;;;;;6094374;29;20122;-76
2022/10/20 02:05:32;;;;;;;12.95;3.92;;;19.00;62.60;;;;;;6082268;29;20586;-76
2022/10/20 02:08:38;;;;;;;10.70;3.42;;;19.00;62.80;;;;;;6084852;29;20040;-77
2022/10/20 02:12:08;;;;;;;15.40;3.10;;;18.90;62.90;;;;;;6082275;29;20506;-77
2022/10/20 02:15:10;;;;;;;;;;;18.90;63.10;;;;;;6068765;29;20361;-77
2022/10/20 02:18:16;;;;;;;9.18;3.47;;;18.90;63.10;;;;;;6084278;29;20636;-77
2022/10/20 02:21:18;;;;;;;11.43;3.33;;;18.90;63.10;;;;;;6100191;29;20555;-77
2022/10/20 02:24:24;;;;;;;23.27;3.45;;;18.80;63.10;;;;;;6100939;29;20032;-77
2022/10/20 02:27:32;;;;;;;9.20;3.05;;;18.80;63.30;;;;;;6096706;29;20032;-77
2022/10/20 02:30:35;;;;;;;8.48;3.72;;;18.80;63.40;;;;;;6101861;29;20354;-77
2022/10/20 02:33:37;;;;;;;12.30;3.60;;;18.80;63.40;;;;;;6114957;29;20124;-77
2022/10/20 02:36:40;;;;;;;14.63;3.10;;;18.80;63.40;;;;;;6101792;29;20047;-77
2022/10/20 02:39:41;;;;;;;10.32;3.42;;;18.80;63.50;;;;;;6100419;29;20123;-77
2022/10/20 02:42:42;;;;;;;12.55;3.72;;;18.80;64.30;;;;;;6091556;29;20347;-77
2022/10/20 02:45:43;;;;;;;9.80;2.90;;;18.80;63.60;;;;;;6101669;29;20040;-77
2022/10/20 02:48:44;;;;;;;9.98;3.03;;;18.70;63.50;;;;;;6099830;29;20025;-77
2022/10/20 02:51:45;;;;;;;12.15;3.50;;;18.70;63.60;;;;;;6097035;29;20397;-77
2022/10/20 02:54:46;;;;;;;13.05;3.60;;;18.70;63.60;;;;;;6101175;29;20076;-77
2022/10/20 02:57:46;;;;;;;9.25;3.58;;;18.70;63.60;;;;;;6101348;29;20044;-77
2022/10/20 03:00:50;;;;;;;13.07;3.13;;;18.70;63.50;;;;;;6101405;29;20092;-77
2022/10/20 03:03:54;;;;;;;18.98;3.22;;;18.80;63.60;;;;;;6101383;29;20020;-77
2022/10/20 03:06:55;;;;;;;16.63;3.97;;;18.80;63.50;;;;;;6082616;29;20043;-77
2022/10/20 03:09:56;;;;;;;8.00;3.30;;;18.80;63.40;;;;;;6096147;29;20509;-77
2022/10/20 03:12:56;;;;;;;17.85;3.45;;;18.80;63.30;;;;;;6098704;29;20123;-77
2022/10/20 03:15:58;;;;;;;16.77;3.60;;;18.90;63.30;;;;;;6099759;29;20036;-77
2022/10/20 03:18:58;;;;;;;13.77;3.42;;;18.90;63.20;;;;;;6098511;29;20064;-77
2022/10/20 03:21:59;;;;;;;12.02;2.83;;;18.90;63.20;;;;;;6101711;29;20032;-77
2022/10/20 03:25:00;;;;;;;10.38;3.20;;;19.00;63.20;;;;;;6102710;29;20099;-77
2022/10/20 03:28:01;;;;;;;13.60;3.17;;;19.00;63.20;;;;;;6101690;29;20043;-77
2022/10/20 03:31:02;;;;;;;13.88;4.13;;;19.00;63.10;;;;;;6101127;29;20032;-77
2022/10/20 03:34:03;;;;;;;12.00;3.40;;;19.00;63.10;;;;;;6101177;29;20130;-77
2022/10/20 03:37:04;;;;;;;19.83;3.35;;;19.00;63.10;;;;;;6103129;29;20036;-77
2022/10/20 03:40:06;;;;;;;11.32;3.60;;;19.00;63.10;;;;;;6099612;29;20032;-77
2022/10/20 03:43:06;;;;;;;14.88;3.88;;;19.00;63.20;;;;;;6102592;29;20059;-77
2022/10/20 03:46:10;;;;;;;14.35;3.60;;;19.00;63.10;;;;;;6085423;29;20025;-77
2022/10/20 03:49:11;;;;;;;29.95;4.18;;;19.10;63.10;;;;;;6098987;29;20035;-77
2022/10/20 03:52:12;;;;;;;11.88;3.33;;;19.10;62.90;;;;;;6102601;29;20446;-77
2022/10/20 03:55:13;;;;;;;12.23;2.88;;;19.10;62.80;;;;;;6117093;29;20370;-77
2022/10/20 03:58:14;;;;;;;14.98;3.85;;;19.20;62.80;;;;;;6076771;29;20040;-77
2022/10/20 04:01:16;;;;;;;19.75;3.65;;;19.20;62.70;;;;;;6112861;29;20553;-77
2022/10/20 04:04:17;;;;;;;11.30;2.53;;;19.30;62.70;;;;;;6099507;29;20036;-77
2022/10/20 04:07:18;;;;;;;9.07;3.38;;;19.30;62.40;;;;;;6099943;29;20039;-78
2022/10/20 04:10:19;;;;;;;15.63;3.40;;;19.30;62.10;;;;;;6097755;29;20091;-78
2022/10/20 04:13:20;;;;;;;16.17;3.40;;;19.30;61.90;;;;;;6097391;29;20103;-77
2022/10/20 04:16:21;;;;;;;10.65;3.28;;;19.30;61.90;;;;;;6095777;29;20394;-77
2022/10/20 04:19:22;;;;;;;9.45;3.13;;;19.30;61.80;;;;;;6106111;29;20027;-77
2022/10/20 04:22:23;;;;;;;10.35;3.75;;;19.30;61.70;;;;;;6107942;29;20052;-77
2022/10/20 04:25:24;;;;;;;11.70;3.33;;;19.20;61.70;;;;;;6084253;29;20091;-77
2022/10/20 04:28:24;;;;;;;9.57;3.90;;;19.20;62.50;;;;;;6099235;29;20135;-77
2022/10/20 04:31:25;;;;;;;8.15;3.72;;;19.20;61.60;;;;;;6099096;29;20057;-77
2022/10/20 04:34:26;;;;;;;15.20;3.47;;;19.20;61.50;;;;;;6087360;29;20040;-77
2022/10/20 04:37:27;;;;;;;17.27;3.45;;;19.20;61.50;;;;;;6100557;29;20086;-77
2022/10/20 04:40:28;;;;;;;8.35;3.83;;;19.20;61.50;;;;;;6101336;29;20047;-77
2022/10/20 04:43:31;;;;;;;10.50;3.28;;;19.10;61.60;;;;;;6100495;29;20533;-77
2022/10/20 04:46:32;;;;;;;15.45;3.30;;;19.10;61.50;;;;;;6101650;29;20036;-77
2022/10/20 04:49:34;;;;;;;12.30;3.83;;;19.10;61.70;;;;;;6101644;29;20133;-77
2022/10/20 04:52:35;;;;;;;12.23;3.40;;;19.10;61.80;;;;;;6100281;29;20052;-77
2022/10/20 04:55:36;;;;;;;11.75;2.95;;;19.00;61.70;;;;;;6100133;29;20048;-77
2022/10/20 04:58:36;;;;;;;17.80;3.97;;;19.00;61.70;;;;;;6099096;29;20025;-77
2022/10/20 05:01:38;;;;;;;15.20;3.85;;;19.00;62.00;;;;;;6098393;29;20462;-77
2022/10/20 05:04:38;;;;;;;11.45;3.53;;;19.00;62.00;;;;;;6098955;29;20048;-77
2022/10/20 05:07:40;;;;;;;13.93;3.67;;;19.00;62.10;;;;;;6095785;29;20048;-77
2022/10/20 05:10:41;;;;;;;9.80;3.08;;;19.00;62.20;;;;;;6098799;29;20108;-79
2022/10/20 05:13:42;;;;;;;26.58;3.83;;;18.90;62.40;;;;;;6099333;29;20433;-77
2022/10/20 05:16:43;;;;;;;13.75;4.78;;;18.90;62.50;;;;;;6098975;29;20349;-77
2022/10/20 05:19:45;;;;;;;25.65;3.65;;;18.90;62.60;;;;;;6094626;29;20073;-79
2022/10/20 05:22:45;;;;;;;12.55;3.72;;;18.90;62.60;;;;;;6095682;29;20045;-77
2022/10/20 05:25:46;;;;;;;19.70;3.55;;;18.90;62.60;;;;;;6110497;29;20040;-78
2022/10/20 05:28:50;;;;;;;16.42;4.03;;;18.90;62.60;;;;;;6116838;29;20119;-78
2022/10/20 05:31:50;;;;;;;13.95;4.00;;;18.90;62.70;;;;;;6105140;29;20024;-78
2022/10/20 05:34:51;;;;;;;18.85;4.07;;;19.00;62.60;;;;;;6104117;29;20055;-77
2022/10/20 05:37:52;;;;;;;7.70;3.20;;;19.00;62.70;;;;;;6104035;29;20343;-77
2022/10/20 05:40:53;;;;;;;13.27;3.63;;;19.00;62.50;;;;;;6103930;29;20176;-77
2022/10/20 05:43:58;;;;;;;16.85;4.00;;;19.00;62.50;;;;;;6103677;29;20024;-78
2022/10/20 05:46:59;;;;;;;10.60;3.58;;;19.10;62.60;;;;;;6106131;29;20035;-77
2022/10/20 05:49:59;;;;;;;15.60;4.38;;;19.10;62.60;;;;;;6105207;29;20347;-76
2022/10/20 05:53:00;;;;;;;10.50;3.92;;;19.10;62.60;;;;;;6103165;29;20090;-77
2022/10/20 05:56:06;;;;;;;13.07;4.13;;;19.20;62.50;;;;;;6098026;29;20525;-78
2022/10/20 05:59:07;;;;;;;12.88;3.78;;;19.20;62.40;;;;;;6102288;29;20036;-76
2022/10/20 06:02:10;;;;;;;11.77;3.80;;;19.20;62.30;;;;;;6102542;29;20040;-77
2022/10/20 06:05:11;;;;;;;16.58;4.03;;;19.30;62.20;;;;;;6097252;29;20047;-77
2022/10/20 06:08:12;;;;;;;14.05;4.60;;;19.20;62.20;;;;;;6102642;29;20098;-77
2022/10/20 06:11:14;;;;;;;19.73;4.72;;;19.20;62.30;;;;;;6104191;29;20422;-77
2022/10/20 06:14:16;;;;;;;12.65;4.63;;;19.20;62.30;;;;;;6120023;29;20453;-76
2022/10/20 06:17:16;;;;;;;12.63;4.07;;;19.20;62.30;;;;;;6104390;29;20044;-77
2022/10/20 06:20:17;;;;;;;8.93;4.30;;;19.20;62.20;;;;;;6104995;29;20054;-77
2022/10/20 06:23:18;;;;;;;11.18;4.22;;;19.20;62.20;;;;;;6104926;29;20072;-77
2022/10/20 06:26:24;;;;;;;14.43;5.20;;;19.20;62.30;;;;;;6105157;29;20119;-78
2022/10/20 06:29:25;;;;;;;10.02;3.78;;;19.30;62.30;;;;;;6087112;29;20162;-77
2022/10/20 06:32:26;;;;;;;11.70;4.80;;;19.30;62.10;;;;;;6101678;29;20131;-78
2022/10/20 06:35:30;;;;;;;24.27;4.75;;;19.30;62.10;;;;;;6104852;29;20127;-78
2022/10/20 06:38:30;;;;;;;14.23;4.20;;;19.30;62.90;;;;;;6099728;29;20032;-79
2022/10/20 06:41:32;;;;;;;24.67;5.53;;;19.30;61.90;;;;;;6097794;29;20043;-79
2022/10/20 06:44:33;;;;;;;12.20;3.97;;;19.40;62.00;;;;;;6102097;29;20402;-78
2022/10/20 06:47:34;;;;;;;15.70;4.45;;;19.40;61.90;;;;;;6103753;29;20036;-78
2022/10/20 06:50:35;;;;;;;12.88;4.30;;;19.40;61.90;;;;;;6103844;29;20051;-78
2022/10/20 06:53:39;;;;;;;22.08;5.00;;;19.50;61.90;;;;;;6084626;29;20032;-78
2022/10/20 06:56:40;;;;;;;9.98;4.30;;;19.50;61.80;;;;;;6101142;29;20127;-77
2022/10/20 06:59:41;;;;;;;13.50;4.53;;;19.50;61.70;;;;;;6099778;29;20104;-78
2022/10/20 07:02:41;;;;;;;26.33;5.90;;;19.60;61.70;;;;;;6116798;29;20032;-77
2022/10/20 07:05:42;;;;;;;17.05;5.07;;;19.60;61.60;;;;;;6101447;29;20032;-77
2022/10/20 07:08:44;;;;;;;22.60;5.35;;;19.70;61.50;;;;;;6101660;29;20085;-79
2022/10/20 07:11:49;;;;;;;8.77;4.05;;;19.70;61.60;;;;;;6116923;29;20064;-78
2022/10/20 07:14:50;;;;;;;20.67;4.40;;;19.70;61.40;;;;;;6118040;29;20044;-78
2022/10/20 07:17:51;;;;;;;16.83;4.68;;;19.80;61.20;;;;;;6103508;29;20423;-77
2022/10/20 07:20:56;;;;;;;11.73;4.13;;;19.80;61.10;;;;;;6102812;29;20040;-78
2022/10/20 07:23:59;;;;;;;14.45;4.50;;;19.90;61.00;;;;;;6104129;29;20028;-78
2022/10/20 07:27:00;;;;;;;16.60;4.90;;;19.90;60.70;;;;;;6103031;29;20060;-76
2022/10/20 07:30:01;;;;;;;12.55;4.75;;;19.90;60.60;;;;;;6102241;29;20034;-78
2022/10/20 07:33:02;;;;;;;27.25;4.75;;;19.90;60.60;;;;;;6102728;29;20024;-79
2022/10/20 07:36:16;;;;;;;14.20;4.63;;;19.90;60.70;;;;;;6102355;29;20062;-78
2022/10/20 07:39:17;;;;;;;15.95;4.78;;;19.90;60.80;;;;;;6099909;29;20054;-77
2022/10/20 07:42:18;;;;;;;15.00;4.28;;;19.80;60.70;;;;;;6100966;29;20032;-78
2022/10/20 07:45:22;;;;;;;12.77;4.68;;;19.80;60.70;;;;;;6099966;29;20087;-78
2022/10/20 07:48:23;;;;;;;22.83;5.25;;;19.90;60.90;;;;;;6102797;29;20414;-77
2022/10/20 07:51:33;;;;;;;18.15;5.53;;;19.90;60.80;;;;;;6102943;29;20028;-79
2022/10/20 07:54:34;;;;;;;18.67;4.90;;;20.00;60.70;;;;;;6102150;29;20073;-77
2022/10/20 07:57:35;;;;;;;14.40;4.78;;;20.10;60.50;;;;;;6101819;29;20036;-79
2022/10/20 08:00:36;;;;;;;22.42;5.72;;;20.10;60.40;;;;;;6102255;29;20118;-77
2022/10/20 08:03:37;;;;;;;33.47;5.53;;;20.10;60.30;;;;;;6101124;29;20040;-78
2022/10/20 08:06:38;;;;;;;17.42;5.20;;;20.20;60.30;;;;;;6102929;29;20039;-78
2022/10/20 08:09:38;;;;;;;12.43;5.38;;;20.20;60.20;;;;;;6099785;29;20028;-78
2022/10/20 08:12:39;;;;;;;12.75;5.03;;;20.20;60.10;;;;;;6100359;29;20346;-78
2022/10/20 08:15:40;;;;;;;17.30;4.95;;;20.20;59.90;;;;;;6095201;29;20043;-78
2022/10/20 08:18:41;;;;;;;11.20;4.88;;;20.30;59.80;;;;;;6102595;29;20044;-78
2022/10/20 08:21:42;;;;;;;18.38;5.50;;;20.30;59.60;;;;;;6098470;29;20050;-79
2022/10/20 08:24:43;;;;;;;10.73;5.43;;;20.40;59.50;;;;;;6101346;29;20095;-78
2022/10/20 08:27:44;;;;;;;16.38;5.30;;;20.40;59.40;;;;;;6101484;29;20031;-77
2022/10/20 08:30:45;;;;;;;11.95;4.97;;;20.40;59.30;;;;;;6097085;29;20032;-78
2022/10/20 08:33:46;;;;;;;13.65;5.30;;;20.50;59.30;;;;;;6100225;29;20982;-78
2022/10/20 08:36:47;;;;;;;24.90;5.90;;;20.50;59.30;;;;;;6101234;29;20032;-77
2022/10/20 08:39:47;;;;;;;12.80;5.20;;;20.50;59.30;;;;;;6096834;29;20406;-78
2022/10/20 08:42:49;;;;;;;19.67;5.47;;;20.60;59.10;;;;;;6100715;29;20357;-78
2022/10/20 08:45:50;;;;;;;24.33;5.82;;;20.60;59.00;;;;;;6100578;29;20050;-78
2022/10/20 08:48:51;;;;;;;16.98;5.55;;;20.70;59.00;;;;;;6100756;29;20039;-78
2022/10/20 08:51:52;;;;;;;28.30;9.27;;;20.70;59.00;;;;;;6097950;29;20110;-78
2022/10/20 08:54:55;;;;;;;28.23;9.20;;;20.90;58.90;;;;;;6101181;29;20046;-79
2022/10/20 08:58:06;;;;;;;27.40;10.32;;;20.90;58.60;;;;;;6095602;29;20092;-78
2022/10/20 09:01:25;;;;;;;32.28;9.68;;;20.90;58.60;;;;;;6099387;29;20043;-78
2022/10/20 09:04:39;;;;;;;25.25;6.93;;;20.80;58.70;;;;;;6110169;29;20034;-78
2022/10/20 09:07:40;;;;;;;28.40;10.05;;;20.80;58.80;;;;;;6080737;29;20070;-79
2022/10/20 09:10:50;;;;;;;16.95;5.93;;;20.80;58.80;;;;;;6116706;29;20036;-78
2022/10/20 09:13:52;;;;;;;28.40;11.32;;;20.80;58.80;;;;;;6099618;29;20521;-78
2022/10/20 09:16:54;;;;;;;33.40;11.45;;;20.70;58.80;;;;;;6100892;29;20048;-78
2022/10/20 09:19:57;;;;;;;20.55;7.38;;;20.70;58.90;;;;;;6097173;29;20086;-77
2022/10/20 09:22:58;;;;;;;19.45;7.43;;;20.70;58.90;;;;;;6106232;29;20408;-77
2022/10/20 09:25:59;;;;;;;23.95;8.48;;;20.70;58.90;;;;;;6094029;29;20056;-77
2022/10/20 09:29:14;;;;;;;25.75;11.98;;;20.60;58.90;;;;;;6098002;29;20044;-77
2022/10/20 09:32:34;;;;;;;21.75;8.38;;;20.70;59.10;;;;;;6097981;29;20044;-78
2022/10/20 09:35:35;;;;;;;18.17;6.78;;;20.70;58.90;;;;;;6075925;29;20040;-79
2022/10/20 09:38:41;;;;;;;21.05;6.78;;;20.80;58.70;;;;;;6094441;29;20024;-78
2022/10/20 09:41:42;;;;;;;26.42;8.48;;;20.80;58.60;;;;;;6101856;29;20055;-78
2022/10/20 09:44:56;;;;;;;21.25;6.88;;;20.90;58.70;;;;;;6081341;29;20039;-78
2022/10/20 09:48:20;;;;;;;28.13;8.30;;;21.00;58.60;;;;;;6094642;29;20020;-78
2022/10/20 09:51:24;;;;;;;49.40;18.65;;;21.00;58.60;;;;;;6111233;29;20127;-78
2022/10/20 09:54:26;;;;;;;39.22;16.13;;;21.00;58.40;;;;;;6098719;29;20373;-78
2022/10/20 09:57:30;;;;;;;17.95;8.68;;;21.30;58.30;;;;;;6101779;29;20123;-78
2022/10/20 10:00:32;;;;;;;21.45;8.77;;;21.40;58.00;;;;;;6096600;29;20040;-77
2022/10/20 10:03:43;;;;;;;25.33;10.07;;;21.40;57.90;;;;;;6097543;29;20067;-78
2022/10/20 10:06:45;;;;;;;28.75;10.23;;;21.60;57.80;;;;;;6095477;29;20492;-78
2022/10/20 10:10:22;;;;;;;52.28;19.55;;;21.70;57.60;;;;;;6094811;29;20068;-77
2022/10/20 10:13:25;;;;;;;69.57;23.70;;;21.80;57.60;;;;;;6101766;29;20036;-78
2022/10/20 10:16:39;;;;;;;44.45;13.40;;;21.90;57.40;;;;;;6099960;29;20139;-78
2022/10/20 10:19:46;;;;;;;32.72;8.73;;;22.00;57.20;;;;;;6099078;29;20051;-78
2022/10/20 10:22:47;;;;;;;38.35;12.40;;;22.10;57.00;;;;;;6100816;29;20036;-78
2022/10/20 10:25:49;;;;;;;25.23;11.55;;;22.10;56.80;;;;;;6100990;29;20520;-78
2022/10/20 10:28:57;;;;;;;29.70;9.07;;;22.00;56.80;;;;;;6099749;29;20446;-78
2022/10/20 10:32:16;;;;;;;33.97;15.38;;;22.00;56.80;;;;;;6102458;29;20044;-78
2022/10/20 10:35:38;;;;;;;52.80;19.63;;;22.00;56.80;;;;;;6097215;29;20043;-78
2022/10/20 10:38:39;;;;;;;47.92;18.02;;;21.90;57.00;;;;;;6101207;29;20036;-78
2022/10/20 10:42:03;;;;;;;45.13;19.42;;;21.80;57.00;;;;;;6102838;29;20549;-78
2022/10/20 10:45:33;;;;;;;42.60;15.20;;;21.80;57.20;;;;;;6101771;29;20040;-78
2022/10/20 10:48:52;;;;;;;74.15;27.33;;;21.80;57.20;;;;;;6028782;29;20030;-77
2022/10/20 10:52:18;;;;;;;52.92;16.80;;;21.90;57.30;;;;;;6014627;29;20385;-78
2022/10/20 10:55:26;;;;;;;31.17;11.52;;;21.80;57.30;;;;;;6042088;29;20483;-78
2022/10/20 10:58:54;;;;;;;55.35;15.55;;;21.80;57.20;;;;;;6028352;29;20048;-77
2022/10/20 11:02:32;;;;;;;37.47;9.98;;;21.80;57.30;;;;;;6028641;29;20075;-78
2022/10/20 11:05:49;;;;;;;23.85;8.10;;;21.70;57.50;;;;;;6000608;29;20033;-77
2022/10/20 11:08:58;;;;;;;23.77;7.55;;;21.70;57.60;;;;;;6049823;29;20033;-78
2022/10/20 11:12:17;;;;;;;18.15;8.02;;;21.70;58.30;;;;;;6038456;29;20120;-77
2022/10/20 11:15:24;;;;;;;18.70;6.43;;;21.70;57.80;;;;;;6032036;29;20088;-77
2022/10/20 11:18:54;;;;;;;25.15;6.43;;;21.70;57.90;;;;;;6012212;29;20041;-78
2022/10/20 11:22:23;;;;;;;23.83;6.53;;;21.70;58.00;;;;;;6040189;29;20043;-78
2022/10/20 11:25:31;;;;;;;16.88;7.13;;;21.70;58.00;;;;;;6058201;29;20122;-78
2022/10/20 11:28:43;;;;;;;20.98;6.47;;;21.70;57.90;;;;;;6099825;29;20065;-78
2022/10/20 11:32:07;;;;;;;19.20;6.90;;;21.80;57.90;;;;;;6108486;29;20331;-78
2022/10/20 11:35:19;;;;;;;23.13;6.53;;;21.80;57.80;;;;;;6096922;29;20060;-77
2022/10/20 11:38:48;;;;;;;30.52;7.70;;;21.90;57.70;;;;;;6092885;29;20469;-78
2022/10/20 11:41:57;;;;;;;38.30;8.00;;;21.90;57.80;;;;;;6098014;29;20035;-79
2022/10/20 11:45:00;;;;;;;22.48;7.85;;;21.90;57.90;;;;;;6110277;29;20046;-79
2022/10/20 11:48:24;;;;;;;32.03;7.38;;;21.90;58.50;;;;;;6102510;29;20046;-78
2022/10/20 11:51:30;;;;;;;20.45;7.50;;;21.90;57.90;;;;;;6100683;29;20067;-77
2022/10/20 11:55:10;;;;;;;14.75;6.03;;;22.00;57.80;;;;;;6098127;29;20036;-77
2022/10/20 11:58:36;;;;;;;16.85;6.35;;;22.00;58.00;;;;;;6094369;29;20036;-78
2022/10/20 12:01:57;;;;;;;23.60;5.75;;;22.00;57.90;;;;;;6092308;29;20679;-78
2022/10/20 12:05:26;;;;;;;22.73;6.00;;;22.00;57.80;;;;;;6061447;29;20124;-78
2022/10/20 12:09:00;;;;;;;15.32;5.70;;;22.00;57.70;;;;;;6065306;29;20037;-78
2022/10/20 12:12:19;;;;;;;19.20;5.68;;;21.90;57.70;;;;;;6097534;29;20028;-78
2022/10/20 12:15:26;;;;;;;24.00;6.13;;;21.90;57.60;;;;;;6092774;29;20082;-78
2022/10/20 12:18:31;;;;;;;16.73;5.38;;;21.90;57.50;;;;;;6090300;29;20043;-78
2022/10/20 12:22:01;;;;;;;20.90;5.65;;;21.90;57.50;;;;;;6085525;29;20032;-77
2022/10/20 12:25:02;;;;;;;15.48;5.60;;;21.90;57.60;;;;;;6093902;29;20036;-78
2022/10/20 12:28:24;;;;;;;16.60;5.60;;;21.90;57.60;;;;;;6097375;29;20051;-78
2022/10/20 12:32:03;;;;;;;19.52;5.68;;;21.90;57.50;;;;;;6079537;29;20059;-78
2022/10/20 12:35:10;;;;;;;24.10;5.57;;;21.90;57.50;;;;;;6090116;29;20067;-77
2022/10/20 12:38:16;;;;;;;14.05;5.07;;;21.90;57.30;;;;;;6095931;29;20051;-77
2022/10/20 12:41:32;;;;;;;23.15;5.13;;;21.90;57.30;;;;;;6109052;29;20067;-77
2022/10/20 12:44:43;;;;;;;13.77;6.72;;;21.80;57.20;;;;;;6090100;29;20064;-77
2022/10/20 12:47:59;;;;;;;18.20;7.18;;;21.90;57.20;;;;;;6092094;29;22110;-78
2022/10/20 12:51:14;;;;;;;32.65;7.72;;;21.90;57.30;;;;;;6091783;29;20044;-79
2022/10/20 12:54:37;;;;;;;36.10;5.60;;;22.00;57.20;;;;;;6093026;29;20158;-77
2022/10/20 12:57:44;;;;;;;16.40;5.72;;;22.10;57.10;;;;;;6097948;29;20033;-77
2022/10/20 13:00:50;;;;;;;15.48;5.53;;;22.20;57.10;;;;;;6103827;29;20029;-78
2022/10/20 13:03:51;;;;;;;22.90;5.78;;;22.30;57.10;;;;;;6105789;29;20036;-78
2022/10/20 13:06:52;;;;;;;19.85;6.55;;;22.30;57.00;;;;;;6092048;29;20048;-78
2022/10/20 13:09:54;;;;;;;17.45;6.28;;;22.40;57.00;;;;;;6085093;29;20051;-78
2022/10/20 13:13:01;;;;;;;18.00;6.57;;;22.50;56.90;;;;;;6098859;29;20047;-78
2022/10/20 13:16:05;;;;;;;20.15;6.30;;;22.50;56.90;;;;;;6095508;29;20454;-79
2022/10/20 13:19:12;;;;;;;16.90;6.43;;;22.60;56.80;;;;;;6097923;29;20036;-78
2022/10/20 13:22:37;;;;;;;25.23;7.35;;;22.70;56.70;;;;;;6074703;29;20043;-77
2022/10/20 13:25:47;;;;;;;27.05;8.18;;;22.80;56.50;;;;;;6106661;29;20036;-77
2022/10/20 13:28:51;;;;;;;27.15;7.63;;;23.00;56.30;;;;;;6103212;29;20055;-78
2022/10/20 13:32:05;;;;;;;15.48;4.80;;;23.00;56.10;;;;;;6096956;29;20177;-78
2022/10/20 13:35:32;;;;;;;19.83;5.10;;;23.00;55.80;;;;;;6098107;29;20152;-78
2022/10/20 13:39:10;;;;;;;21.35;5.65;;;23.10;56.30;;;;;;6093934;29;20040;-78
2022/10/20 13:42:48;;;;;;;12.63;3.40;;;23.20;55.20;;;;;;6010198;29;20102;-77
2022/10/20 13:45:49;;;;;;;16.52;4.32;;;23.40;54.30;;;;;;6027843;29;20064;-78
2022/10/20 13:49:19;;;;;;;11.35;3.40;;;23.60;53.60;;;;;;6027875;29;20125;-78
2022/10/20 13:52:20;;;;;;;19.23;3.53;;;23.80;53.30;;;;;;6016555;29;20066;-79
2022/10/20 13:55:30;;;;;;;16.35;3.10;;;24.00;52.60;;;;;;6029251;29;20049;-78
2022/10/20 13:58:32;;;;;;;12.02;3.45;;;24.10;52.00;;;;;;6012181;29;20030;-79
2022/10/20 14:01:35;;;;;;;19.77;2.97;;;24.30;51.20;;;;;;6032769;29;20449;-77
2022/10/20 14:04:36;;;;;;;12.43;2.83;;;24.50;50.70;;;;;;6011809;29;20116;-77
2022/10/20 14:07:42;;;;;;;20.10;3.40;;;24.60;50.20;;;;;;6030805;29;20045;-79
2022/10/20 14:11:05;;;;;;;20.40;2.70;;;24.70;49.90;;;;;;6013880;29;20034;-79
2022/10/20 14:14:12;;;;;;;13.52;2.72;;;24.90;49.50;;;;;;5958714;29;20050;-77
2022/10/20 14:17:19;;;;;;;22.47;3.50;;;25.00;49.00;;;;;;5951668;29;20046;-77
2022/10/20 14:20:21;;;;;;;11.05;2.35;;;25.10;48.70;;;;;;6007133;29;20306;-77
2022/10/20 14:23:23;;;;;;;15.73;2.63;;;25.20;48.50;;;;;;6003501;29;20030;-79
2022/10/20 14:26:25;;;;;;;21.02;3.17;;;25.30;48.40;;;;;;6003261;29;20125;-79
2022/10/20 14:29:32;;;;;;;11.45;2.83;;;25.40;48.20;;;;;;6024839;29;20033;-77
2022/10/20 14:32:39;;;;;;;19.98;3.67;;;25.40;48.00;;;;;;6020616;29;20565;-78
2022/10/20 14:35:44;;;;;;;12.63;2.72;;;25.40;47.90;;;;;;6027515;29;20049;-78
2022/10/20 14:38:50;;;;;;;17.90;2.90;;;25.40;47.70;;;;;;6018743;29;20026;-78
2022/10/20 14:41:55;;;;;;;22.70;3.45;;;25.40;47.30;;;;;;6019217;29;20037;-78
2022/10/20 14:44:58;;;;;;;17.25;2.83;;;25.40;47.10;;;;;;6028152;29;20033;-78
2022/10/20 14:48:00;;;;;;;22.60;3.25;;;25.40;46.30;;;;;;6016133;29;20064;-78
2022/10/20 14:51:02;;;;;;;15.82;2.72;;;25.50;45.90;;;;;;6074099;29;20512;-78
2022/10/20 14:54:30;;;;;;;16.48;2.38;;;25.60;45.20;;;;;;6100969;29;20118;-79
2022/10/20 14:57:38;;;;;;;18.67;2.33;;;25.60;44.60;;;;;;6100077;29;20029;-78
2022/10/20 15:00:39;;;;;;;11.93;2.22;;;25.70;44.20;;;;;;6099371;29;20056;-78
2022/10/20 15:03:40;;;;;;;8.75;2.63;;;25.70;43.90;;;;;;6095895;29;20111;-77
2022/10/20 15:06:42;;;;;;;10.95;1.92;;;25.80;43.80;;;;;;6097524;29;20072;-78
2022/10/20 15:09:46;;;;;;;15.25;3.13;;;25.80;43.60;;;;;;6096329;29;20043;-78
2022/10/20 15:12:49;;;;;;;18.27;2.13;;;25.90;43.30;;;;;;6089762;29;20372;-78
2022/10/20 15:15:50;;;;;;;18.38;3.28;;;25.90;43.20;;;;;;6097220;29;20039;-78
2022/10/20 15:19:11;;;;;;;15.18;2.30;;;26.00;43.10;;;;;;6110698;29;20481;-76
2022/10/20 15:22:12;;;;;;;14.93;2.50;;;25.90;42.90;;;;;;6100529;29;20042;-78
2022/10/20 15:25:13;;;;;;;10.55;1.95;;;25.90;42.80;;;;;;6084359;29;20052;-77
2022/10/20 15:28:35;;;;;;;18.63;2.90;;;25.90;42.80;;;;;;6097494;29;20064;-80
2022/10/20 15:31:36;;;;;;;17.75;5.00;;;25.90;42.80;;;;;;6114119;29;20461;-78
2022/10/20 15:34:38;;;;;;;21.98;4.32;;;25.90;43.20;;;;;;6099256;29;20048;-78
2022/10/20 15:37:38;;;;;;;19.60;3.75;;;25.80;44.00;;;;;;6100761;29;20474;-76
2022/10/20 15:40:40;;;;;;;15.55;3.75;;;25.70;44.40;;;;;;6102257;29;20044;-78
2022/10/20 15:43:41;;;;;;;28.13;3.08;;;25.60;44.50;;;;;;6104384;29;20096;-78
2022/10/20 15:46:45;;;;;;;19.65;4.43;;;25.50;44.40;;;;;;6098532;29;20038;-78
2022/10/20 15:49:46;;;;;;;16.50;4.50;;;25.40;45.60;;;;;;6091097;29;20063;-77
2022/10/20 15:52:47;;;;;;;23.02;4.68;;;25.30;47.10;;;;;;6096447;29;20036;-77
2022/10/20 15:55:48;;;;;;;14.65;4.25;;;25.10;47.10;;;;;;6090670;29;20110;-79
2022/10/20 15:58:49;;;;;;;25.50;4.15;;;24.90;47.70;;;;;;6096242;29;20032;-79